Latest Weather Observations for Holsworthy

IDN60801

Issued at 2:05 pm EDT Monday 22 December 2014 (issued every 30 minutes, with the page automatically refreshed every 10 minutes)

About weather observations | Map of weather stations | Latest weather observations for NSW | Other Formats
Station Details ID: 066161 Name: HOLSWORTHY AERODROME AWS Lat: -33.99 Lon: 150.95 Height: 68.16 m
Data from the previous 72 hours. | See also: Recent months at Holsworthy
Date/Time
EDT
Temp
°C
App
Temp
°C
Dew
Point
Rel
Hum
%
Delta-T
°C
Wind Press
QNH
hPa
Press
MSL
hPa
Rain
since 9 am
mm
Dir
 
Spd
km/h
Gust
km/h
Spd
kts
Gust
kts
22/02:00pm 28.5 26.4 18.0 53 6.7 E 26 33 14 18 1014.8 1014.5 0.0
22/01:30pm 28.9 27.6 18.1 52 6.9 ENE 22 32 12 17 1015.4 1015.1 0.0
22/01:00pm 29.4 28.9 19.1 54 6.7 E 20 30 11 16 1015.5 1015.2 0.0
22/12:30pm 29.0 28.2 18.1 51 7.0 ENE 19 28 10 15 1015.9 1015.6 0.0
22/12:00pm 29.4 29.4 17.2 47 7.7 NE 13 22 7 12 1016.2 1015.9 0.0
22/11:30am 28.4 28.7 17.0 50 7.2 ENE 11 17 6 9 1016.4 1016.1 0.0
22/11:00am 26.8 27.5 17.0 55 6.1 NE 9 17 5 9 1016.6 1016.3 0.0
22/10:30am 25.8 26.8 17.7 61 5.1 NE 9 20 5 11 1017.1 1016.8 0.0
22/10:00am 24.8 25.5 18.0 66 4.3 NNE 11 17 6 9 1016.9 1016.6 0.0
22/09:30am 23.9 25.6 18.1 70 3.6 N 6 11 3 6 1017.2 1016.9 0.0
22/09:00am 22.7 24.1 17.8 74 3.1 NNW 7 11 4 6 1017.1 1016.8 0.0
22/08:30am 21.6 22.5 17.6 78 2.5 NNW 9 13 5 7 1017.1 1016.8 0.0
22/08:00am 21.3 22.7 17.7 80 2.2 NNE 7 9 4 5 1016.7 1016.4 0.0
22/07:30am 20.6 21.8 17.4 82 2.0 NE 7 9 4 5 1016.6 1016.3 0.0
22/07:00am 19.8 21.4 17.9 89 1.2 SE 6 7 3 4 1016.3 1016.0 0.0
22/06:30am 18.2 19.3 17.2 94 0.6 SE 7 9 4 5 1016.1 1015.8 0.0
22/06:00am 17.7 19.9 16.6 93 0.7 CALM 0 0 0 0 1015.7 1015.4 0.0
22/05:30am 17.0 17.4 15.2 89 1.0 SSW 7 7 4 4 1015.4 1015.1 0.0
22/05:00am 18.6 19.8 17.3 92 0.8 E 7 7 4 4 1014.8 1014.5 0.0
22/04:30am 18.7 20.1 17.4 92 0.8 SE 6 7 3 4 1014.9 1014.6 0.0
22/04:00am 18.7 19.8 17.2 91 0.9 ESE 7 9 4 5 1014.9 1014.6 0.0
22/03:30am 19.1 20.3 17.4 90 1.0 SE 7 9 4 5 1015.2 1014.9 0.0
22/03:00am 18.9 20.0 17.2 90 1.0 ESE 7 9 4 5 1015.4 1015.1 0.0
22/02:30am 19.3 20.5 17.3 88 1.2 SE 7 7 4 4 1015.9 1015.6 0.0
22/02:00am 19.5 20.9 17.3 87 1.3 ESE 6 7 3 4 1015.8 1015.5 0.0
22/01:30am 19.9 21.4 17.7 87 1.4 E 6 9 3 5 1016.0 1015.7 0.0
22/01:00am 20.1 21.5 17.7 86 1.5 E 7 11 4 6 1016.1 1015.8 0.0
22/12:30am 20.2 21.1 17.6 85 1.6 E 9 13 5 7 1016.4 1016.1 0.0
22/12:00am 20.3 21.6 17.5 84 1.7 ENE 7 9 4 5 1016.6 1016.3 0.0
 
Date/Time
EDT
Temp
°C
App
Temp
°C
Dew
Point
Rel
Hum
%
Delta-T
°C
Wind Press
QNH
hPa
Press
MSL
hPa
Rain
since 9 am
mm
Dir
 
Spd
km/h
Gust
km/h
Spd
kts
Gust
kts
21/11:30pm 20.5 21.8 17.5 83 1.8 ENE 7 9 4 5 1016.6 1016.3 0.0
21/11:00pm 20.7 21.6 17.5 82 2.0 ENE 9 11 5 6 1016.6 1016.3 0.0
21/10:30pm 21.1 22.1 17.7 81 2.1 NE 9 13 5 7 1016.9 1016.6 0.0
21/10:00pm 21.2 22.1 17.6 80 2.2 NE 9 13 5 7 1016.9 1016.6 0.0
21/09:30pm 21.6 22.2 17.6 78 2.5 NE 11 17 6 9 1017.1 1016.8 0.0
21/09:00pm 21.7 22.3 17.7 78 2.5 ENE 11 17 6 9 1016.6 1016.3 0.0
21/08:30pm 22.0 22.3 17.8 77 2.6 ENE 13 20 7 11 1016.2 1015.9 0.0
21/08:00pm 22.5 21.4 17.4 73 3.2 ENE 19 26 10 14 1015.6 1015.3 0.0
21/07:30pm 23.2 22.4 17.2 69 3.7 ENE 17 26 9 14 1015.4 1015.1 0.0
21/07:00pm 24.1 22.9 17.4 66 4.2 ENE 20 32 11 17 1014.9 1014.6 0.0
21/06:30pm 24.5 23.1 17.0 63 4.6 ENE 20 30 11 16 1014.9 1014.6 0.0
21/06:00pm 24.9 23.1 16.9 61 5.0 NE 22 37 12 20 1014.9 1014.6 0.0
21/05:30pm 25.6 23.3 16.7 58 5.5 E 24 33 13 18 1014.7 1014.4 0.0
21/05:00pm 25.8 24.4 16.9 58 5.5 ENE 20 33 11 18 1014.8 1014.5 0.0
21/04:30pm 26.5 24.3 17.0 56 5.9 ENE 24 35 13 19 1014.9 1014.6 0.0
21/04:00pm 26.6 25.1 16.8 55 6.1 ENE 20 33 11 18 1015.1 1014.8 0.0
21/03:30pm 27.1 25.7 17.0 54 6.3 ENE 20 32 11 17 1015.5 1015.2 0.0
21/03:00pm 27.2 25.7 16.8 53 6.5 NE 20 32 11 17 1015.7 1015.4 0.0
21/02:30pm 26.6 25.1 16.2 52 6.4 NE 19 28 10 15 1015.8 1015.5 0.0
21/02:00pm 27.0 25.9 16.3 52 6.6 E 17 26 9 14 1016.2 1015.9 0.0
21/01:30pm 26.5 25.4 15.2 49 6.9 NNE 15 24 8 13 1016.7 1016.4 0.0
21/01:00pm 26.9 25.6 15.9 51 6.7 NE 17 30 9 16 1017.4 1017.1 0.0
21/12:30pm 26.6 25.5 15.3 50 6.9 ENE 15 28 8 15 1017.6 1017.3 0.0
21/12:00pm 26.0 24.8 15.1 51 6.6 ENE 15 26 8 14 1018.0 1017.7 0.0
21/11:30am 24.6 24.3 15.5 57 5.5 N 11 22 6 12 1018.1 1017.8 0.0
21/11:00am 24.3 24.7 15.2 57 5.5 N 7 15 4 8 1018.1 1017.8 0.0
21/10:30am 23.1 22.0 14.4 58 5.1 NNE 13 19 7 10 1018.4 1018.1 0.0
21/10:00am 22.9 22.1 15.0 61 4.7 NNE 13 19 7 10 1018.5 1018.2 0.0
21/09:30am 22.3 22.0 15.4 65 4.1 N 11 17 6 9 1018.7 1018.4 0.0
21/09:00am 21.3 21.7 15.2 68 3.6 NNW 7 13 4 7 1019.0 1018.7 0.0
21/08:30am 20.5 20.7 14.6 69 3.5 WNW 7 11 4 6 1018.9 1018.6 0.0
21/08:00am 19.6 19.6 14.2 71 3.1 W 7 9 4 5 1018.8 1018.5 0.0
21/07:30am 17.7 18.1 13.8 78 2.2 W 4 6 2 3 1018.5 1018.2 0.0
21/07:00am 15.8 16.9 13.6 87 1.2 CALM 0 0 0 0 1018.3 1018.0 0.0
21/06:30am 14.3 14.5 13.0 92 0.7 S 4 6 2 3 1018.0 1017.7 0.0
21/06:00am 13.1 12.9 11.7 91 0.7 S 4 6 2 3 1017.9 1017.6 0.0
21/05:30am 13.4 12.7 11.5 88 1.0 S 6 6 3 3 1017.9 1017.6 0.0
21/05:00am 14.2 14.2 12.4 89 1.0 SSE 4 6 2 3 1017.6 1017.3 0.0
21/04:30am 14.2 14.3 12.6 90 0.9 SSE 4 6 2 3 1017.5 1017.2 0.0
21/04:00am 14.4 14.0 12.4 88 1.1 SSE 6 6 3 3 1017.4 1017.1 0.0
21/03:30am 14.8 14.9 12.7 87 1.2 SSE 4 6 2 3 1017.4 1017.1 0.0
21/03:00am 15.1 15.2 12.6 85 1.4 SSE 4 6 2 3 1017.6 1017.3 0.0
21/02:30am 15.5 14.8 13.2 86 1.3 SSE 9 9 5 5 1017.8 1017.5 0.0
21/02:00am 15.3 14.8 12.8 85 1.4 SE 7 9 4 5 1018.0 1017.7 0.0
21/01:30am 15.5 15.2 12.8 84 1.5 SE 6 6 3 3 1018.3 1018.0 0.0
21/01:00am 15.9 15.7 13.0 83 1.6 SE 6 6 3 3 1018.6 1018.3 0.0
21/12:30am 16.0 15.8 12.9 82 1.7 SE 6 6 3 3 1018.9 1018.6 0.0
21/12:00am 16.5 16.4 13.2 81 1.8 SE 6 7 3 4 1019.1 1018.8 0.0
 
Date/Time
EDT
Temp
°C
App
Temp
°C
Dew
Point
Rel
Hum
%
Delta-T
°C
Wind Press
QNH
hPa
Press
MSL
hPa
Rain
since 9 am
mm
Dir
 
Spd
km/h
Gust
km/h
Spd
kts
Gust
kts
20/11:30pm 16.5 16.2 12.8 79 2.1 SE 6 7 3 4 1019.3 1019.0 0.0
20/11:00pm 17.6 17.4 13.1 75 2.5 SE 6 7 3 4 1019.2 1018.9 0.0
20/10:30pm 17.8 17.4 12.9 73 2.7 SE 7 9 4 5 1019.0 1018.7 0.0
20/10:00pm 18.3 17.9 13.0 71 3.0 E 7 9 4 5 1018.9 1018.6 0.0
20/09:30pm 18.5 18.0 12.7 69 3.3 E 7 9 4 5 1018.6 1018.3 0.0
20/09:00pm 18.8 18.0 12.8 68 3.4 ENE 9 13 5 7 1018.2 1017.9 0.0
20/08:30pm 19.4 18.5 12.7 65 3.8 E 9 11 5 6 1017.8 1017.5 0.0
20/08:00pm 19.9 18.9 12.4 62 4.2 E 9 15 5 8 1017.3 1017.0 0.0
20/07:30pm 20.7 18.8 12.9 61 4.4 E 15 20 8 11 1016.9 1016.6 0.0
20/07:00pm 21.3 19.3 12.7 58 4.9 E 15 20 8 11 1016.6 1016.3 0.0
20/06:30pm 21.5 18.7 12.6 57 5.1 E 19 28 10 15 1016.3 1016.0 0.0
20/06:00pm 21.8 18.4 12.4 55 5.3 E 22 30 12 16 1015.8 1015.5 0.0
20/05:30pm 21.8 18.8 12.4 55 5.3 E 20 33 11 18 1015.7 1015.4 0.0
20/05:00pm 22.4 18.7 12.6 54 5.6 E 24 37 13 20 1015.6 1015.3 0.0
20/04:30pm 22.4 18.5 12.1 52 5.8 E 24 35 13 19 1015.7 1015.4 0.0
20/04:00pm 23.6 20.3 12.9 51 6.2 ESE 22 32 12 17 1015.9 1015.6 0.0
20/03:30pm 23.0 19.6 12.6 52 6.0 E 22 32 12 17 1016.1 1015.8 0.0
20/03:00pm 23.2 19.7 12.2 50 6.3 E 22 32 12 17 1016.2 1015.9 0.0
20/02:30pm 23.4 20.4 12.7 51 6.1 E 20 30 11 16 1016.3 1016.0 0.0
20/02:00pm 24.0 22.1 12.9 50 6.4 NE 15 24 8 13 1016.3 1016.0 0.0
20/01:30pm 22.9 20.1 11.3 48 6.5 E 17 24 9 13 1016.9 1016.6 0.0
20/01:00pm 22.8 20.5 10.6 46 6.7 ENE 13 24 7 13 1017.2 1016.9 0.0
20/12:30pm 22.5 19.8 10.3 46 6.7 NE 15 24 8 13 1017.6 1017.3 0.0
20/12:00pm 23.0 21.1 10.4 45 6.9 N 11 17 6 9 1017.8 1017.5 0.0
20/11:30am 21.7 21.1 10.5 49 6.1 ESE 4 11 2 6 1018.1 1017.8 0.0
20/11:00am 21.9 21.3 11.6 52 5.8 SSW 6 13 3 7 1018.3 1018.0 0.0
20/10:30am 20.8 19.3 10.6 52 5.6 ENE 9 17 5 9 1018.4 1018.1 0.0
20/10:00am 20.1 19.8 11.3 57 4.8 SW 4 7 2 4 1018.5 1018.2 0.0
20/09:30am 20.0 18.8 11.7 59 4.6 SSE 9 13 5 7 1018.6 1018.3 0.0
20/09:00am 19.0 17.7 11.3 61 4.2 ENE 9 11 5 6 1018.7 1018.4 0.0
20/08:30am 19.4 18.1 11.4 60 4.4 SE 9 17 5 9 1018.7 1018.4 0.0
20/08:00am 18.9 17.4 11.9 64 3.9 SSE 11 13 6 7 1018.6 1018.3 0.0
20/07:30am 17.5 17.0 12.8 74 2.6 S 7 9 4 5 1018.3 1018.0 0.0
20/07:00am 16.4 16.1 12.6 78 2.1 S 6 7 3 4 1018.1 1017.8 0.0
20/06:30am 15.7 15.1 12.3 80 1.9 S 7 9 4 5 1017.8 1017.5 0.0
20/06:00am 15.3 14.7 12.2 82 1.7 S 7 9 4 5 1017.7 1017.4 0.0
20/05:30am 15.5 14.4 12.1 80 1.9 S 9 11 5 6 1017.6 1017.3 0.0
20/05:00am 15.9 14.8 11.9 77 2.2 S 9 11 5 6 1017.5 1017.2 0.0
20/04:30am 16.3 15.2 12.1 76 2.3 S 9 13 5 7 1017.4 1017.1 0.0
20/04:00am 16.5 15.4 11.9 74 2.5 S 9 13 5 7 1017.3 1017.0 0.0
20/03:30am 16.8 16.0 11.7 72 2.8 S 7 11 4 6 1017.3 1017.0 0.0
20/03:00am 16.9 16.1 11.6 71 2.9 S 7 9 4 5 1017.5 1017.2 0.0
20/02:30am 16.9 16.3 11.8 72 2.8 S 6 7 3 4 1017.6 1017.3 0.0
20/02:00am 17.0 16.2 11.7 71 2.9 S 7 9 4 5 1017.9 1017.6 0.0
20/01:30am 17.4 16.8 11.7 69 3.1 S 6 9 3 5 1018.1 1017.8 0.0
20/01:00am 17.5 16.8 11.3 67 3.4 SSW 6 6 3 3 1018.4 1018.1 0.0
20/12:30am 17.7 17.7 11.3 66 3.5 S 2 7 1 4 1018.7 1018.4 0.0
20/12:00am 18.0 17.2 10.9 63 3.8 S 6 7 3 4 1018.9 1018.6 0.0
 
Date/Time
EDT
Temp
°C
App
Temp
°C
Dew
Point
Rel
Hum
%
Delta-T
°C
Wind Press
QNH
hPa
Press
MSL
hPa
Rain
since 9 am
mm
Dir
 
Spd
km/h
Gust
km/h
Spd
kts
Gust
kts
19/11:30pm 18.1 17.0 10.5 61 4.1 SSE 7 11 4 6 1019.0 1018.7 0.0
19/11:00pm 18.2 16.7 10.6 61 4.1 SE 9 11 5 6 1019.1 1018.8 0.0
19/10:30pm 18.4 16.6 10.7 61 4.2 SE 11 17 6 9 1018.8 1018.5 0.0
19/10:00pm 18.5 17.1 10.8 61 4.2 SE 9 15 5 8 1018.5 1018.2 0.0
19/09:30pm 18.5 16.8 11.1 62 4.0 SE 11 19 6 10 1018.1 1017.8 0.0
19/09:00pm 18.6 15.6 10.7 60 4.3 SE 17 24 9 13 1017.8 1017.5 0.0
19/08:30pm 18.7 15.2 10.3 58 4.5 SE 19 26 10 14 1017.5 1017.2 0.0
19/08:00pm 18.7 15.0 10.0 57 4.6 SE 20 28 11 15 1017.1 1016.8 0.0
19/07:30pm 18.8 14.6 9.8 56 4.8 SE 22 32 12 17 1016.5 1016.2 0.0
19/07:00pm 18.9 14.2 9.1 53 5.1 SE 24 33 13 18 1015.8 1015.5 0.0
19/06:30pm 19.1 15.4 10.1 56 4.8 SE 20 32 11 17 1015.1 1014.8 0.0
19/06:00pm 19.5 15.6 10.8 57 4.7 SE 22 30 12 16 1014.5 1014.2 0.0
19/05:30pm 19.9 15.3 11.1 57 4.8 SE 26 33 14 18 1013.8 1013.6 0.0
19/05:00pm 20.5 15.8 10.6 53 5.4 SSE 26 37 14 20 1013.6 1013.4 0.0
19/04:30pm 21.1 16.8 10.6 51 5.7 SE 24 35 13 19 1013.2 1013.0 0.0
19/04:00pm 21.4 16.7 9.3 46 6.5 SE 24 37 13 20 1013.1 1012.9 0.0
19/03:30pm 21.6 17.2 10.4 49 6.1 SSE 24 33 13 18 1013.1 1012.9 0.0
19/03:00pm 21.6 17.7 10.7 50 6.0 ESE 22 32 12 17 1012.9 1012.7 0.0
19/02:30pm 21.6 17.4 11.0 51 5.9 SE 24 35 13 19 1012.9 1012.7 0.0

Other Formats:

Comma delimited format used in spreadsheet applications
http://www.bom.gov.au/fwo/IDN60801/IDN60801.95761.axf

JavaScript Object Notation format (JSON) in row-major order
http://www.bom.gov.au/fwo/IDN60801/IDN60801.95761.json